Coe Leni — A8VR8 — position and weather

sailwx.info

Track history (hours):
 
Tides and Currents Weather Stations Pressure Air Temp Water Temp Dewpoint Dewpoint Depression Visibility Wind Speed Wind Dir Waves Ship Positions

Coe Leni

Last reported at 2017-Oct-17 22:29 UTC. Time now 2017-Oct-20 00:01 UTC.
Position N 46°58' W 091°33'.

Length 138 m; draft 7.9 m.

Type: Ship. MMSI: 636092036.

Date/timePositionNaut miles runAvg speedWind from/ knotsBaromVisibWave heightAir tempDewpointWater temp
2017-Oct-17 22:29N 46°58' W 091°33'714.8
2017-Oct-17 22:00N 46°55' W 091°42'714.9
2017-Oct-17 21:30N 46°51' W 091°52'714.5
2017-Oct-17 21:00N 46°48' W 092°02'4 7.8
2017-Oct-17 20:30N 46°46' W 092°06'0 0.0
2017-Oct-17 19:59N 46°46' W 092°06'0 0.0
2017-Oct-17 19:26N 46°46' W 092°06'0 0.0
2017-Oct-17 18:59N 46°46' W 092°06'0 0.0
2017-Oct-17 18:29N 46°46' W 092°06'0 0.0
2017-Oct-17 17:59N 46°46' W 092°06'0 0.0
2017-Oct-17 17:29N 46°46' W 092°06'0 0.0
2017-Oct-17 16:59N 46°46' W 092°06'0 0.0
2017-Oct-17 16:29N 46°46' W 092°06'0 0.0
2017-Oct-17 15:59N 46°46' W 092°06'0 0.0
2017-Oct-17 15:29N 46°46' W 092°06'0 0.0
2017-Oct-17 14:59N 46°46' W 092°06'0 0.0
2017-Oct-17 14:29N 46°46' W 092°06'0 0.0
2017-Oct-17 13:59N 46°46' W 092°06'0 0.0
2017-Oct-17 13:29N 46°46' W 092°06'0 0.0
2017-Oct-17 12:59N 46°46' W 092°06'0 0.0
2017-Oct-17 12:29N 46°46' W 092°06'0 0.0
2017-Oct-17 11:59N 46°46' W 092°06'0 0.0
2017-Oct-17 11:29N 46°46' W 092°06'0 0.0
2017-Oct-17 10:56N 46°46' W 092°06'0 0.0
2017-Oct-17 10:26N 46°46' W 092°06'0 0.0
2017-Oct-17 09:59N 46°46' W 092°06'0 0.0
2017-Oct-17 09:29N 46°46' W 092°06'0 0.0
2017-Oct-17 08:59N 46°46' W 092°06'0 0.0
2017-Oct-17 08:29N 46°46' W 092°06'0 0.0
2017-Oct-17 07:56N 46°46' W 092°06'0 0.0
2017-Oct-17 07:26N 46°46' W 092°06'0 0.0
2017-Oct-17 06:59N 46°46' W 092°06'0 0.0
2017-Oct-17 06:29N 46°46' W 092°06'0 0.0
2017-Oct-17 05:56N 46°46' W 092°06'0 0.0
2017-Oct-17 05:29N 46°46' W 092°06'0 0.0
2017-Oct-17 04:56N 46°46' W 092°06'0 0.0
2017-Oct-17 04:26N 46°46' W 092°06'0 0.0
2017-Oct-17 03:59N 46°46' W 092°06'0 0.0
2017-Oct-17 03:29N 46°46' W 092°06'0 0.0
2017-Oct-17 02:56N 46°46' W 092°06'0 0.0
2017-Oct-17 02:29N 46°46' W 092°06'0 0.0
2017-Oct-17 01:59N 46°46' W 092°06'0 0.0
2017-Oct-17 01:29N 46°46' W 092°06'0 0.1
2017-Oct-17 00:59N 46°46' W 092°06'0 0.1
2017-Oct-17 00:29N 46°46' W 092°06'0 0.0
2017-Oct-16 23:59N 46°46' W 092°06'0 0.1
2017-Oct-16 23:26N 46°46' W 092°06'0 0.1
2017-Oct-16 22:56N 46°46' W 092°06'0 0.0
2017-Oct-16 22:29N 46°46' W 092°06'0 0.0
2017-Oct-16 21:56N 46°46' W 092°06'0 0.0
2017-Oct-16 21:29N 46°46' W 092°06'0 0.0
2017-Oct-16 20:59N 46°46' W 092°06'0 0.0
2017-Oct-16 20:26N 46°46' W 092°06'0 0.0
2017-Oct-16 19:59N 46°46' W 092°06'0 0.0
2017-Oct-16 19:29N 46°46' W 092°06'0 0.0
2017-Oct-16 18:59N 46°46' W 092°06'0 0.0
2017-Oct-16 18:29N 46°46' W 092°06'0 0.0
2017-Oct-16 17:56N 46°46' W 092°06'0 0.0
2017-Oct-16 17:29N 46°46' W 092°06'0 0.0
2017-Oct-16 16:56N 46°46' W 092°06'0 0.0
2017-Oct-16 16:29N 46°46' W 092°06'0 0.0
2017-Oct-16 15:56N 46°46' W 092°06'0 0.0
2017-Oct-16 15:26N 46°46' W 092°06'0 0.0
2017-Oct-16 14:56N 46°46' W 092°06'0 0.0
2017-Oct-16 14:26N 46°46' W 092°06'0 0.0
2017-Oct-16 13:29N 46°46' W 092°06'0 0.0
2017-Oct-16 12:59N 46°46' W 092°06'0 0.1
2017-Oct-16 12:29N 46°46' W 092°06'0 0.1
2017-Oct-16 11:59N 46°46' W 092°06'0 0.3
2017-Oct-16 11:30N 46°46' W 092°06'2 3.2
2017-Oct-16 11:00N 46°47' W 092°04'4 7.1
2017-Oct-16 10:30N 46°48' W 091°60'612.8
2017-Oct-16 10:00N 46°51' W 091°51'610.9
2017-Oct-16 09:30N 46°53' W 091°43'610.8
2017-Oct-16 08:58N 46°55' W 091°36'  
2017-Oct-09 05:54N 46°25' W 084°15'11 7.8
2017-Oct-09 04:26N 46°15' W 084°06'3 7.5
2017-Oct-09 04:01N 46°12' W 084°07'5 9.7
2017-Oct-09 03:27N 46°08' W 084°01'510.3
2017-Oct-09 02:59N 46°04' W 083°60'511.0
2017-Oct-09 02:31N 46°01' W 083°53'5 9.0
2017-Oct-09 02:00N 45°57' W 083°53'715.0
2017-Oct-09 01:30N 45°50' W 083°47'815.2
2017-Oct-09 00:59N 45°44' W 083°41'715.3
2017-Oct-09 00:31N 45°38' W 083°35'815.4
2017-Oct-09 00:00N 45°32' W 083°28'  
Track history (hours):
 
Tides and Currents Weather Stations Pressure Air Temp Water Temp Dewpoint Dewpoint Depression Visibility Wind Speed Wind Dir Waves Ship Positions

Coe Leni

Last reported at 2017-Oct-17 22:29 UTC. Time now 2017-Oct-20 00:01 UTC.
Position N 46°58' W 091°33'.

Length 138 m; draft 7.9 m.

Type: Ship. MMSI: 636092036.

Date/timePositionNaut miles runAvg speedWind from/ knotsBaromVisibWave heightAir tempDewpointWater temp
2017-Oct-17 22:29N 46°58' W 091°33'714.8
2017-Oct-17 22:00N 46°55' W 091°42'714.9
2017-Oct-17 21:30N 46°51' W 091°52'714.5
2017-Oct-17 21:00N 46°48' W 092°02'4 7.8
2017-Oct-17 20:30N 46°46' W 092°06'0 0.0
2017-Oct-17 19:59N 46°46' W 092°06'0 0.0
2017-Oct-17 19:26N 46°46' W 092°06'0 0.0
2017-Oct-17 18:59N 46°46' W 092°06'0 0.0
2017-Oct-17 18:29N 46°46' W 092°06'0 0.0
2017-Oct-17 17:59N 46°46' W 092°06'0 0.0
2017-Oct-17 17:29N 46°46' W 092°06'0 0.0
2017-Oct-17 16:59N 46°46' W 092°06'0 0.0
2017-Oct-17 16:29N 46°46' W 092°06'0 0.0
2017-Oct-17 15:59N 46°46' W 092°06'0 0.0
2017-Oct-17 15:29N 46°46' W 092°06'0 0.0
2017-Oct-17 14:59N 46°46' W 092°06'0 0.0
2017-Oct-17 14:29N 46°46' W 092°06'0 0.0
2017-Oct-17 13:59N 46°46' W 092°06'0 0.0
2017-Oct-17 13:29N 46°46' W 092°06'0 0.0
2017-Oct-17 12:59N 46°46' W 092°06'0 0.0
2017-Oct-17 12:29N 46°46' W 092°06'0 0.0
2017-Oct-17 11:59N 46°46' W 092°06'0 0.0
2017-Oct-17 11:29N 46°46' W 092°06'0 0.0
2017-Oct-17 10:56N 46°46' W 092°06'0 0.0
2017-Oct-17 10:26N 46°46' W 092°06'0 0.0
2017-Oct-17 09:59N 46°46' W 092°06'0 0.0
2017-Oct-17 09:29N 46°46' W 092°06'0 0.0
2017-Oct-17 08:59N 46°46' W 092°06'0 0.0
2017-Oct-17 08:29N 46°46' W 092°06'0 0.0
2017-Oct-17 07:56N 46°46' W 092°06'0 0.0
2017-Oct-17 07:26N 46°46' W 092°06'0 0.0
2017-Oct-17 06:59N 46°46' W 092°06'0 0.0
2017-Oct-17 06:29N 46°46' W 092°06'0 0.0
2017-Oct-17 05:56N 46°46' W 092°06'0 0.0
2017-Oct-17 05:29N 46°46' W 092°06'0 0.0
2017-Oct-17 04:56N 46°46' W 092°06'0 0.0
2017-Oct-17 04:26N 46°46' W 092°06'0 0.0
2017-Oct-17 03:59N 46°46' W 092°06'0 0.0
2017-Oct-17 03:29N 46°46' W 092°06'0 0.0
2017-Oct-17 02:56N 46°46' W 092°06'0 0.0
2017-Oct-17 02:29N 46°46' W 092°06'0 0.0
2017-Oct-17 01:59N 46°46' W 092°06'0 0.0
2017-Oct-17 01:29N 46°46' W 092°06'0 0.1
2017-Oct-17 00:59N 46°46' W 092°06'0 0.1
2017-Oct-17 00:29N 46°46' W 092°06'0 0.0
2017-Oct-16 23:59N 46°46' W 092°06'0 0.1
2017-Oct-16 23:26N 46°46' W 092°06'0 0.1
2017-Oct-16 22:56N 46°46' W 092°06'0 0.0
2017-Oct-16 22:29N 46°46' W 092°06'0 0.0
2017-Oct-16 21:56N 46°46' W 092°06'0 0.0
2017-Oct-16 21:29N 46°46' W 092°06'0 0.0
2017-Oct-16 20:59N 46°46' W 092°06'0 0.0
2017-Oct-16 20:26N 46°46' W 092°06'0 0.0
2017-Oct-16 19:59N 46°46' W 092°06'0 0.0
2017-Oct-16 19:29N 46°46' W 092°06'0 0.0
2017-Oct-16 18:59N 46°46' W 092°06'0 0.0
2017-Oct-16 18:29N 46°46' W 092°06'0 0.0
2017-Oct-16 17:56N 46°46' W 092°06'0 0.0
2017-Oct-16 17:29N 46°46' W 092°06'0 0.0
2017-Oct-16 16:56N 46°46' W 092°06'0 0.0
2017-Oct-16 16:29N 46°46' W 092°06'0 0.0
2017-Oct-16 15:56N 46°46' W 092°06'0 0.0
2017-Oct-16 15:26N 46°46' W 092°06'0 0.0
2017-Oct-16 14:56N 46°46' W 092°06'0 0.0
2017-Oct-16 14:26N 46°46' W 092°06'0 0.0
2017-Oct-16 13:29N 46°46' W 092°06'0 0.0
2017-Oct-16 12:59N 46°46' W 092°06'0 0.1
2017-Oct-16 12:29N 46°46' W 092°06'0 0.1
2017-Oct-16 11:59N 46°46' W 092°06'0 0.3
2017-Oct-16 11:30N 46°46' W 092°06'2 3.2
2017-Oct-16 11:00N 46°47' W 092°04'4 7.1
2017-Oct-16 10:30N 46°48' W 091°60'612.8
2017-Oct-16 10:00N 46°51' W 091°51'610.9
2017-Oct-16 09:30N 46°53' W 091°43'610.8
2017-Oct-16 08:58N 46°55' W 091°36'  
2017-Oct-09 05:54N 46°25' W 084°15'11 7.8
2017-Oct-09 04:26N 46°15' W 084°06'3 7.5
2017-Oct-09 04:01N 46°12' W 084°07'5 9.7
2017-Oct-09 03:27N 46°08' W 084°01'510.3
2017-Oct-09 02:59N 46°04' W 083°60'511.0
2017-Oct-09 02:31N 46°01' W 083°53'5 9.0
2017-Oct-09 02:00N 45°57' W 083°53'715.0
2017-Oct-09 01:30N 45°50' W 083°47'815.2
2017-Oct-09 00:59N 45°44' W 083°41'715.3
2017-Oct-09 00:31N 45°38' W 083°35'815.4
2017-Oct-09 00:00N 45°32' W 083°28'  

Dump ship's entire track history